sensor_id;sensor_type;location;lat;lon;timestamp;P1;durP1;ratioP1;P2;durP2;ratioP2
17947;SDS011;9099;47.958;11.366;2023-10-08T00:00:24;3.13;;;2.75;;
17947;SDS011;9099;47.958;11.366;2023-10-08T00:03:12;2.80;;;2.50;;
17947;SDS011;9099;47.958;11.366;2023-10-08T00:05:39;3.20;;;2.70;;
17947;SDS011;9099;47.958;11.366;2023-10-08T00:08:07;2.80;;;2.42;;
17947;SDS011;9099;47.958;11.366;2023-10-08T00:10:35;3.40;;;2.70;;
17947;SDS011;9099;47.958;11.366;2023-10-08T00:13:05;2.85;;;2.47;;
17947;SDS011;9099;47.958;11.366;2023-10-08T00:15:34;3.20;;;2.70;;
17947;SDS011;9099;47.958;11.366;2023-10-08T00:18:02;3.13;;;2.83;;
17947;SDS011;9099;47.958;11.366;2023-10-08T00:20:30;2.55;;;2.35;;
17947;SDS011;9099;47.958;11.366;2023-10-08T00:23:02;2.70;;;2.50;;
17947;SDS011;9099;47.958;11.366;2023-10-08T00:25:32;4.28;;;2.80;;
17947;SDS011;9099;47.958;11.366;2023-10-08T00:28:05;3.05;;;2.42;;
17947;SDS011;9099;47.958;11.366;2023-10-08T00:30:36;3.40;;;2.60;;
17947;SDS011;9099;47.958;11.366;2023-10-08T00:33:05;3.10;;;2.47;;
17947;SDS011;9099;47.958;11.366;2023-10-08T00:35:36;3.20;;;2.80;;
17947;SDS011;9099;47.958;11.366;2023-10-08T00:38:04;3.13;;;2.67;;
17947;SDS011;9099;47.958;11.366;2023-10-08T00:40:40;3.67;;;2.90;;
17947;SDS011;9099;47.958;11.366;2023-10-08T00:43:10;2.97;;;2.78;;
17947;SDS011;9099;47.958;11.366;2023-10-08T00:45:53;3.08;;;2.78;;
17947;SDS011;9099;47.958;11.366;2023-10-08T00:48:24;3.50;;;3.20;;
17947;SDS011;9099;47.958;11.366;2023-10-08T00:50:53;3.15;;;2.50;;
17947;SDS011;9099;47.958;11.366;2023-10-08T00:53:34;2.90;;;2.60;;
17947;SDS011;9099;47.958;11.366;2023-10-08T00:56:05;3.65;;;2.55;;
17947;SDS011;9099;47.958;11.366;2023-10-08T00:58:38;3.40;;;2.90;;
17947;SDS011;9099;47.958;11.366;2023-10-08T01:01:07;3.58;;;2.70;;
17947;SDS011;9099;47.958;11.366;2023-10-08T01:03:36;3.15;;;2.85;;
17947;SDS011;9099;47.958;11.366;2023-10-08T01:06:09;2.75;;;2.47;;
17947;SDS011;9099;47.958;11.366;2023-10-08T01:08:37;3.00;;;2.60;;
17947;SDS011;9099;47.958;11.366;2023-10-08T01:11:19;3.33;;;3.03;;
17947;SDS011;9099;47.958;11.366;2023-10-08T01:14:04;2.90;;;2.60;;
17947;SDS011;9099;47.958;11.366;2023-10-08T01:16:34;3.22;;;2.72;;
17947;SDS011;9099;47.958;11.366;2023-10-08T01:19:01;3.78;;;2.90;;
17947;SDS011;9099;47.958;11.366;2023-10-08T01:21:28;2.67;;;2.40;;
17947;SDS011;9099;47.958;11.366;2023-10-08T01:24:06;2.85;;;2.55;;
17947;SDS011;9099;47.958;11.366;2023-10-08T01:26:33;3.63;;;3.17;;
17947;SDS011;9099;47.958;11.366;2023-10-08T01:29:04;3.20;;;2.85;;
17947;SDS011;9099;47.958;11.366;2023-10-08T01:31:32;3.25;;;2.72;;
17947;SDS011;9099;47.958;11.366;2023-10-08T01:33:58;3.00;;;2.70;;
17947;SDS011;9099;47.958;11.366;2023-10-08T01:36:29;3.35;;;3.00;;
17947;SDS011;9099;47.958;11.366;2023-10-08T01:38:57;3.55;;;2.92;;
17947;SDS011;9099;47.958;11.366;2023-10-08T01:41:28;3.28;;;2.63;;
17947;SDS011;9099;47.958;11.366;2023-10-08T01:43:55;3.55;;;2.60;;
17947;SDS011;9099;47.958;11.366;2023-10-08T01:46:23;3.38;;;2.70;;
17947;SDS011;9099;47.958;11.366;2023-10-08T01:48:52;3.28;;;2.75;;
17947;SDS011;9099;47.958;11.366;2023-10-08T01:51:25;3.22;;;2.92;;
17947;SDS011;9099;47.958;11.366;2023-10-08T01:54:02;3.25;;;2.65;;
17947;SDS011;9099;47.958;11.366;2023-10-08T01:56:36;3.28;;;2.70;;
17947;SDS011;9099;47.958;11.366;2023-10-08T01:59:03;3.00;;;2.70;;
17947;SDS011;9099;47.958;11.366;2023-10-08T02:01:31;3.30;;;2.63;;
17947;SDS011;9099;47.958;11.366;2023-10-08T02:03:58;3.45;;;2.60;;
17947;SDS011;9099;47.958;11.366;2023-10-08T02:06:25;3.28;;;2.60;;
17947;SDS011;9099;47.958;11.366;2023-10-08T02:08:51;3.38;;;2.90;;
17947;SDS011;9099;47.958;11.366;2023-10-08T02:11:18;4.25;;;2.35;;
17947;SDS011;9099;47.958;11.366;2023-10-08T02:13:48;4.03;;;2.65;;
17947;SDS011;9099;47.958;11.366;2023-10-08T02:16:17;3.50;;;2.67;;
17947;SDS011;9099;47.958;11.366;2023-10-08T02:18:44;3.10;;;2.80;;
17947;SDS011;9099;47.958;11.366;2023-10-08T02:21:11;4.85;;;3.17;;
17947;SDS011;9099;47.958;11.366;2023-10-08T02:23:39;3.80;;;2.92;;
17947;SDS011;9099;47.958;11.366;2023-10-08T02:26:08;2.75;;;2.47;;
17947;SDS011;9099;47.958;11.366;2023-10-08T02:28:35;3.80;;;2.75;;
17947;SDS011;9099;47.958;11.366;2023-10-08T02:31:05;2.95;;;2.63;;
17947;SDS011;9099;47.958;11.366;2023-10-08T02:33:33;3.15;;;2.65;;
17947;SDS011;9099;47.958;11.366;2023-10-08T02:36:02;3.75;;;2.80;;
17947;SDS011;9099;47.958;11.366;2023-10-08T02:38:30;4.13;;;2.50;;
17947;SDS011;9099;47.958;11.366;2023-10-08T02:41:03;3.15;;;2.67;;
17947;SDS011;9099;47.958;11.366;2023-10-08T02:43:31;4.25;;;2.50;;
17947;SDS011;9099;47.958;11.366;2023-10-08T02:45:59;4.30;;;2.70;;
17947;SDS011;9099;47.958;11.366;2023-10-08T02:48:27;3.03;;;2.30;;
17947;SDS011;9099;47.958;11.366;2023-10-08T02:50:54;2.90;;;2.60;;
17947;SDS011;9099;47.958;11.366;2023-10-08T02:53:32;3.03;;;2.65;;
17947;SDS011;9099;47.958;11.366;2023-10-08T02:55:59;2.53;;;2.33;;
17947;SDS011;9099;47.958;11.366;2023-10-08T02:58:26;3.42;;;2.00;;
17947;SDS011;9099;47.958;11.366;2023-10-08T03:00:53;4.70;;;2.30;;
17947;SDS011;9099;47.958;11.366;2023-10-08T03:03:20;3.45;;;2.85;;
17947;SDS011;9099;47.958;11.366;2023-10-08T03:05:52;4.00;;;2.60;;
17947;SDS011;9099;47.958;11.366;2023-10-08T03:08:21;3.65;;;2.90;;
17947;SDS011;9099;47.958;11.366;2023-10-08T03:10:49;4.40;;;2.28;;
17947;SDS011;9099;47.958;11.366;2023-10-08T03:13:20;3.55;;;2.53;;
17947;SDS011;9099;47.958;11.366;2023-10-08T03:15:47;4.90;;;2.60;;
17947;SDS011;9099;47.958;11.366;2023-10-08T03:18:33;4.32;;;2.67;;
17947;SDS011;9099;47.958;11.366;2023-10-08T03:21:03;3.65;;;2.40;;
17947;SDS011;9099;47.958;11.366;2023-10-08T03:23:44;4.40;;;2.70;;
17947;SDS011;9099;47.958;11.366;2023-10-08T03:26:13;3.95;;;2.92;;
17947;SDS011;9099;47.958;11.366;2023-10-08T03:28:59;2.80;;;2.50;;
17947;SDS011;9099;47.958;11.366;2023-10-08T03:31:32;4.20;;;2.33;;
17947;SDS011;9099;47.958;11.366;2023-10-08T03:34:15;3.55;;;2.40;;
17947;SDS011;9099;47.958;11.366;2023-10-08T03:36:45;4.28;;;2.47;;
17947;SDS011;9099;47.958;11.366;2023-10-08T03:39:14;4.25;;;2.33;;
17947;SDS011;9099;47.958;11.366;2023-10-08T03:41:43;4.13;;;2.45;;
17947;SDS011;9099;47.958;11.366;2023-10-08T03:44:23;3.15;;;2.25;;
17947;SDS011;9099;47.958;11.366;2023-10-08T03:46:50;3.75;;;2.05;;
17947;SDS011;9099;47.958;11.366;2023-10-08T03:49:17;3.55;;;2.15;;
17947;SDS011;9099;47.958;11.366;2023-10-08T03:51:53;4.13;;;2.25;;
17947;SDS011;9099;47.958;11.366;2023-10-08T03:54:22;4.82;;;2.42;;
17947;SDS011;9099;47.958;11.366;2023-10-08T03:56:55;4.18;;;2.42;;
17947;SDS011;9099;47.958;11.366;2023-10-08T03:59:22;3.92;;;2.67;;
17947;SDS011;9099;47.958;11.366;2023-10-08T04:01:56;6.55;;;2.58;;
17947;SDS011;9099;47.958;11.366;2023-10-08T04:04:39;4.95;;;2.72;;
17947;SDS011;9099;47.958;11.366;2023-10-08T04:07:18;2.67;;;2.40;;
17947;SDS011;9099;47.958;11.366;2023-10-08T04:09:54;3.50;;;2.55;;
17947;SDS011;9099;47.958;11.366;2023-10-08T04:12:41;2.85;;;2.00;;
17947;SDS011;9099;47.958;11.366;2023-10-08T04:15:12;5.72;;;2.28;;
17947;SDS011;9099;47.958;11.366;2023-10-08T04:17:41;3.17;;;2.20;;
17947;SDS011;9099;47.958;11.366;2023-10-08T04:20:10;3.75;;;2.50;;
17947;SDS011;9099;47.958;11.366;2023-10-08T04:22:57;3.63;;;2.35;;
17947;SDS011;9099;47.958;11.366;2023-10-08T04:25:25;4.35;;;2.30;;
17947;SDS011;9099;47.958;11.366;2023-10-08T04:27:53;3.83;;;2.35;;
17947;SDS011;9099;47.958;11.366;2023-10-08T04:30:23;4.40;;;2.50;;
17947;SDS011;9099;47.958;11.366;2023-10-08T04:32:58;3.63;;;2.20;;
17947;SDS011;9099;47.958;11.366;2023-10-08T04:35:31;5.85;;;2.38;;
17947;SDS011;9099;47.958;11.366;2023-10-08T04:38:03;3.20;;;2.13;;
17947;SDS011;9099;47.958;11.366;2023-10-08T04:40:33;3.83;;;2.20;;
17947;SDS011;9099;47.958;11.366;2023-10-08T04:43:07;4.30;;;2.10;;
17947;SDS011;9099;47.958;11.366;2023-10-08T04:45:36;3.85;;;2.20;;
17947;SDS011;9099;47.958;11.366;2023-10-08T04:48:03;4.10;;;2.42;;
17947;SDS011;9099;47.958;11.366;2023-10-08T04:50:34;4.30;;;1.88;;
17947;SDS011;9099;47.958;11.366;2023-10-08T04:53:03;3.58;;;1.98;;
17947;SDS011;9099;47.958;11.366;2023-10-08T04:55:33;4.22;;;1.98;;
17947;SDS011;9099;47.958;11.366;2023-10-08T04:58:00;3.65;;;2.15;;
17947;SDS011;9099;47.958;11.366;2023-10-08T05:00:37;4.50;;;2.00;;
17947;SDS011;9099;47.958;11.366;2023-10-08T05:03:18;3.83;;;2.10;;
17947;SDS011;9099;47.958;11.366;2023-10-08T05:05:47;4.90;;;2.08;;
17947;SDS011;9099;47.958;11.366;2023-10-08T05:08:35;3.47;;;2.17;;
17947;SDS011;9099;47.958;11.366;2023-10-08T05:11:12;3.70;;;2.20;;
17947;SDS011;9099;47.958;11.366;2023-10-08T05:14:02;6.13;;;2.42;;
17947;SDS011;9099;47.958;11.366;2023-10-08T05:16:31;5.30;;;2.42;;
17947;SDS011;9099;47.958;11.366;2023-10-08T05:19:14;3.65;;;2.10;;
17947;SDS011;9099;47.958;11.366;2023-10-08T05:21:59;5.97;;;2.28;;
17947;SDS011;9099;47.958;11.366;2023-10-08T05:24:44;5.53;;;2.45;;
17947;SDS011;9099;47.958;11.366;2023-10-08T05:27:32;4.38;;;1.80;;
17947;SDS011;9099;47.958;11.366;2023-10-08T05:30:23;5.22;;;2.05;;
17947;SDS011;9099;47.958;11.366;2023-10-08T05:33:03;3.45;;;2.47;;
17947;SDS011;9099;47.958;11.366;2023-10-08T05:35:50;4.85;;;2.25;;
17947;SDS011;9099;47.958;11.366;2023-10-08T05:38:22;3.70;;;2.15;;
17947;SDS011;9099;47.958;11.366;2023-10-08T05:41:04;3.97;;;2.15;;
17947;SDS011;9099;47.958;11.366;2023-10-08T05:43:38;5.13;;;2.20;;
17947;SDS011;9099;47.958;11.366;2023-10-08T05:46:27;4.65;;;2.60;;
17947;SDS011;9099;47.958;11.366;2023-10-08T05:49:16;5.50;;;2.15;;
17947;SDS011;9099;47.958;11.366;2023-10-08T05:52:03;4.28;;;2.35;;
17947;SDS011;9099;47.958;11.366;2023-10-08T05:54:48;4.25;;;2.20;;
17947;SDS011;9099;47.958;11.366;2023-10-08T05:57:41;4.25;;;2.53;;
17947;SDS011;9099;47.958;11.366;2023-10-08T06:00:12;3.92;;;2.33;;
17947;SDS011;9099;47.958;11.366;2023-10-08T06:02:57;4.93;;;2.22;;
17947;SDS011;9099;47.958;11.366;2023-10-08T06:05:35;3.17;;;1.80;;
17947;SDS011;9099;47.958;11.366;2023-10-08T06:08:29;5.80;;;2.60;;
17947;SDS011;9099;47.958;11.366;2023-10-08T06:11:14;6.30;;;2.67;;
17947;SDS011;9099;47.958;11.366;2023-10-08T06:13:54;5.35;;;2.80;;
17947;SDS011;9099;47.958;11.366;2023-10-08T06:16:25;4.50;;;2.65;;
17947;SDS011;9099;47.958;11.366;2023-10-08T06:19:06;5.10;;;2.50;;
17947;SDS011;9099;47.958;11.366;2023-10-08T06:21:34;5.00;;;2.42;;
17947;SDS011;9099;47.958;11.366;2023-10-08T06:24:03;4.05;;;2.40;;
17947;SDS011;9099;47.958;11.366;2023-10-08T06:26:34;2.78;;;2.20;;
17947;SDS011;9099;47.958;11.366;2023-10-08T06:29:09;3.40;;;2.08;;
17947;SDS011;9099;47.958;11.366;2023-10-08T06:31:45;5.18;;;2.63;;
17947;SDS011;9099;47.958;11.366;2023-10-08T06:34:16;3.15;;;2.28;;
17947;SDS011;9099;47.958;11.366;2023-10-08T06:36:46;4.25;;;2.40;;
17947;SDS011;9099;47.958;11.366;2023-10-08T06:39:18;5.15;;;2.35;;
17947;SDS011;9099;47.958;11.366;2023-10-08T06:41:50;4.03;;;2.47;;
17947;SDS011;9099;47.958;11.366;2023-10-08T06:44:20;3.80;;;2.20;;
17947;SDS011;9099;47.958;11.366;2023-10-08T06:46:47;4.90;;;2.50;;
17947;SDS011;9099;47.958;11.366;2023-10-08T06:49:17;5.82;;;2.53;;
17947;SDS011;9099;47.958;11.366;2023-10-08T06:51:48;3.70;;;2.13;;
17947;SDS011;9099;47.958;11.366;2023-10-08T06:54:16;5.65;;;2.30;;
17947;SDS011;9099;47.958;11.366;2023-10-08T06:56:43;4.90;;;2.17;;
17947;SDS011;9099;47.958;11.366;2023-10-08T06:59:16;3.88;;;2.30;;
17947;SDS011;9099;47.958;11.366;2023-10-08T07:01:45;4.85;;;2.95;;
17947;SDS011;9099;47.958;11.366;2023-10-08T07:04:12;9.77;;;2.97;;
17947;SDS011;9099;47.958;11.366;2023-10-08T07:06:39;7.28;;;3.13;;
17947;SDS011;9099;47.958;11.366;2023-10-08T07:09:08;5.75;;;2.72;;
17947;SDS011;9099;47.958;11.366;2023-10-08T07:11:48;5.00;;;2.72;;
17947;SDS011;9099;47.958;11.366;2023-10-08T07:14:20;6.80;;;2.60;;
17947;SDS011;9099;47.958;11.366;2023-10-08T07:16:49;5.97;;;2.58;;
17947;SDS011;9099;47.958;11.366;2023-10-08T07:19:17;5.35;;;2.60;;
17947;SDS011;9099;47.958;11.366;2023-10-08T07:21:45;4.80;;;2.95;;
17947;SDS011;9099;47.958;11.366;2023-10-08T07:24:12;5.68;;;2.50;;
17947;SDS011;9099;47.958;11.366;2023-10-08T07:26:41;3.72;;;2.20;;
17947;SDS011;9099;47.958;11.366;2023-10-08T07:29:12;5.30;;;3.10;;
17947;SDS011;9099;47.958;11.366;2023-10-08T07:31:42;5.80;;;2.75;;
17947;SDS011;9099;47.958;11.366;2023-10-08T07:34:15;4.03;;;2.60;;
17947;SDS011;9099;47.958;11.366;2023-10-08T07:36:43;5.28;;;2.95;;
17947;SDS011;9099;47.958;11.366;2023-10-08T07:39:12;6.35;;;2.90;;
17947;SDS011;9099;47.958;11.366;2023-10-08T07:41:50;3.63;;;2.40;;
17947;SDS011;9099;47.958;11.366;2023-10-08T07:44:18;4.78;;;2.70;;
17947;SDS011;9099;47.958;11.366;2023-10-08T07:46:46;4.30;;;2.78;;
17947;SDS011;9099;47.958;11.366;2023-10-08T07:49:15;4.82;;;2.55;;
17947;SDS011;9099;47.958;11.366;2023-10-08T07:51:42;6.38;;;2.78;;
17947;SDS011;9099;47.958;11.366;2023-10-08T07:54:16;7.25;;;3.00;;
17947;SDS011;9099;47.958;11.366;2023-10-08T07:56:44;6.25;;;3.33;;
17947;SDS011;9099;47.958;11.366;2023-10-08T07:59:13;7.05;;;2.60;;
17947;SDS011;9099;47.958;11.366;2023-10-08T08:01:41;6.07;;;2.75;;
17947;SDS011;9099;47.958;11.366;2023-10-08T08:04:08;5.85;;;2.92;;
17947;SDS011;9099;47.958;11.366;2023-10-08T08:06:41;7.28;;;2.97;;
17947;SDS011;9099;47.958;11.366;2023-10-08T08:09:08;7.85;;;2.97;;
17947;SDS011;9099;47.958;11.366;2023-10-08T08:11:43;5.45;;;2.88;;
17947;SDS011;9099;47.958;11.366;2023-10-08T08:14:11;4.40;;;2.97;;
17947;SDS011;9099;47.958;11.366;2023-10-08T08:16:41;5.55;;;3.10;;
17947;SDS011;9099;47.958;11.366;2023-10-08T08:19:11;7.20;;;3.25;;
17947;SDS011;9099;47.958;11.366;2023-10-08T08:21:41;7.53;;;3.13;;
17947;SDS011;9099;47.958;11.366;2023-10-08T08:24:10;6.05;;;3.08;;
17947;SDS011;9099;47.958;11.366;2023-10-08T08:26:38;6.38;;;2.85;;
17947;SDS011;9099;47.958;11.366;2023-10-08T08:29:09;7.68;;;3.38;;
17947;SDS011;9099;47.958;11.366;2023-10-08T08:31:40;4.70;;;2.78;;
17947;SDS011;9099;47.958;11.366;2023-10-08T08:34:11;9.55;;;3.72;;
17947;SDS011;9099;47.958;11.366;2023-10-08T08:36:46;7.60;;;3.38;;
17947;SDS011;9099;47.958;11.366;2023-10-08T08:39:14;5.93;;;3.08;;
17947;SDS011;9099;47.958;11.366;2023-10-08T08:41:54;9.02;;;3.08;;
17947;SDS011;9099;47.958;11.366;2023-10-08T08:44:26;5.30;;;2.95;;
17947;SDS011;9099;47.958;11.366;2023-10-08T08:46:55;10.25;;;3.42;;
17947;SDS011;9099;47.958;11.366;2023-10-08T08:49:26;11.35;;;3.50;;
17947;SDS011;9099;47.958;11.366;2023-10-08T08:51:55;7.40;;;3.50;;
17947;SDS011;9099;47.958;11.366;2023-10-08T08:54:26;6.55;;;2.97;;
17947;SDS011;9099;47.958;11.366;2023-10-08T08:56:55;9.10;;;3.72;;
17947;SDS011;9099;47.958;11.366;2023-10-08T08:59:25;5.75;;;3.25;;
17947;SDS011;9099;47.958;11.366;2023-10-08T09:01:55;8.00;;;3.20;;
17947;SDS011;9099;47.958;11.366;2023-10-08T09:04:27;8.48;;;3.50;;
17947;SDS011;9099;47.958;11.366;2023-10-08T09:06:56;7.82;;;3.30;;
17947;SDS011;9099;47.958;11.366;2023-10-08T09:09:30;7.13;;;3.05;;
17947;SDS011;9099;47.958;11.366;2023-10-08T09:11:58;7.75;;;3.25;;
17947;SDS011;9099;47.958;11.366;2023-10-08T09:14:26;8.45;;;2.90;;
17947;SDS011;9099;47.958;11.366;2023-10-08T09:16:57;6.55;;;2.97;;
17947;SDS011;9099;47.958;11.366;2023-10-08T09:19:25;6.45;;;3.00;;
17947;SDS011;9099;47.958;11.366;2023-10-08T09:22:03;6.50;;;3.10;;
17947;SDS011;9099;47.958;11.366;2023-10-08T09:24:31;6.40;;;3.20;;
17947;SDS011;9099;47.958;11.366;2023-10-08T09:27:03;6.78;;;3.00;;
17947;SDS011;9099;47.958;11.366;2023-10-08T09:29:29;6.97;;;3.00;;
17947;SDS011;9099;47.958;11.366;2023-10-08T09:31:57;10.02;;;2.90;;
17947;SDS011;9099;47.958;11.366;2023-10-08T09:34:27;5.75;;;2.92;;
17947;SDS011;9099;47.958;11.366;2023-10-08T09:36:56;8.63;;;3.63;;
17947;SDS011;9099;47.958;11.366;2023-10-08T09:39:27;8.05;;;2.65;;
17947;SDS011;9099;47.958;11.366;2023-10-08T09:41:59;13.27;;;3.40;;
17947;SDS011;9099;47.958;11.366;2023-10-08T09:44:27;7.32;;;3.05;;
17947;SDS011;9099;47.958;11.366;2023-10-08T09:46:57;8.88;;;2.88;;
17947;SDS011;9099;47.958;11.366;2023-10-08T09:49:30;6.20;;;2.83;;
17947;SDS011;9099;47.958;11.366;2023-10-08T09:51:59;5.15;;;2.90;;
17947;SDS011;9099;47.958;11.366;2023-10-08T09:54:31;7.28;;;3.05;;
17947;SDS011;9099;47.958;11.366;2023-10-08T09:57:05;9.45;;;3.13;;
17947;SDS011;9099;47.958;11.366;2023-10-08T09:59:33;8.85;;;3.55;;
17947;SDS011;9099;47.958;11.366;2023-10-08T10:02:00;7.30;;;2.83;;
17947;SDS011;9099;47.958;11.366;2023-10-08T10:04:29;7.38;;;3.20;;
17947;SDS011;9099;47.958;11.366;2023-10-08T10:06:57;8.45;;;3.20;;
17947;SDS011;9099;47.958;11.366;2023-10-08T10:09:25;6.13;;;3.15;;
17947;SDS011;9099;47.958;11.366;2023-10-08T10:11:54;6.60;;;3.17;;
17947;SDS011;9099;47.958;11.366;2023-10-08T10:14:22;8.68;;;3.25;;
17947;SDS011;9099;47.958;11.366;2023-10-08T10:17:12;12.13;;;3.17;;
17947;SDS011;9099;47.958;11.366;2023-10-08T10:19:41;11.45;;;3.10;;
17947;SDS011;9099;47.958;11.366;2023-10-08T10:22:11;7.32;;;3.33;;
17947;SDS011;9099;47.958;11.366;2023-10-08T10:24:40;6.72;;;3.13;;
17947;SDS011;9099;47.958;11.366;2023-10-08T10:27:12;8.77;;;3.25;;
17947;SDS011;9099;47.958;11.366;2023-10-08T10:29:41;10.80;;;3.90;;
17947;SDS011;9099;47.958;11.366;2023-10-08T10:32:10;8.65;;;3.00;;
17947;SDS011;9099;47.958;11.366;2023-10-08T10:34:40;6.28;;;3.10;;
17947;SDS011;9099;47.958;11.366;2023-10-08T10:37:08;10.95;;;3.20;;
17947;SDS011;9099;47.958;11.366;2023-10-08T10:39:50;6.43;;;2.90;;
17947;SDS011;9099;47.958;11.366;2023-10-08T10:42:20;7.47;;;2.97;;
17947;SDS011;9099;47.958;11.366;2023-10-08T10:44:47;9.73;;;3.38;;
17947;SDS011;9099;47.958;11.366;2023-10-08T10:47:15;9.23;;;3.00;;
17947;SDS011;9099;47.958;11.366;2023-10-08T10:50:07;5.38;;;3.00;;
17947;SDS011;9099;47.958;11.366;2023-10-08T10:52:51;6.38;;;2.72;;
17947;SDS011;9099;47.958;11.366;2023-10-08T10:55:19;8.95;;;3.20;;
17947;SDS011;9099;47.958;11.366;2023-10-08T10:57:57;5.35;;;3.30;;
17947;SDS011;9099;47.958;11.366;2023-10-08T11:00:36;6.72;;;3.15;;
17947;SDS011;9099;47.958;11.366;2023-10-08T11:03:22;6.25;;;3.53;;
17947;SDS011;9099;47.958;11.366;2023-10-08T11:05:56;8.02;;;3.13;;
17947;SDS011;9099;47.958;11.366;2023-10-08T11:08:30;10.07;;;3.33;;
17947;SDS011;9099;47.958;11.366;2023-10-08T11:11:00;11.65;;;3.30;;
17947;SDS011;9099;47.958;11.366;2023-10-08T11:13:32;6.93;;;3.58;;
17947;SDS011;9099;47.958;11.366;2023-10-08T11:16:04;8.60;;;3.50;;
17947;SDS011;9099;47.958;11.366;2023-10-08T11:18:32;11.70;;;3.20;;
17947;SDS011;9099;47.958;11.366;2023-10-08T11:21:07;6.43;;;3.15;;
17947;SDS011;9099;47.958;11.366;2023-10-08T11:23:41;9.82;;;3.00;;
17947;SDS011;9099;47.958;11.366;2023-10-08T11:26:11;9.63;;;3.50;;
17947;SDS011;9099;47.958;11.366;2023-10-08T11:28:42;7.35;;;3.03;;
17947;SDS011;9099;47.958;11.366;2023-10-08T11:31:13;7.90;;;3.50;;
17947;SDS011;9099;47.958;11.366;2023-10-08T11:33:44;7.85;;;2.75;;
17947;SDS011;9099;47.958;11.366;2023-10-08T11:36:19;10.40;;;3.00;;
17947;SDS011;9099;47.958;11.366;2023-10-08T11:38:52;8.10;;;3.20;;
17947;SDS011;9099;47.958;11.366;2023-10-08T11:41:26;7.18;;;2.95;;
17947;SDS011;9099;47.958;11.366;2023-10-08T11:43:56;6.60;;;3.33;;
17947;SDS011;9099;47.958;11.366;2023-10-08T11:46:24;10.05;;;3.00;;
17947;SDS011;9099;47.958;11.366;2023-10-08T11:49:03;7.50;;;3.28;;
17947;SDS011;9099;47.958;11.366;2023-10-08T11:51:31;9.40;;;2.92;;
17947;SDS011;9099;47.958;11.366;2023-10-08T11:53:58;9.48;;;3.50;;
17947;SDS011;9099;47.958;11.366;2023-10-08T11:56:26;9.50;;;3.05;;
17947;SDS011;9099;47.958;11.366;2023-10-08T11:58:53;11.43;;;3.17;;
17947;SDS011;9099;47.958;11.366;2023-10-08T12:01:23;9.85;;;3.35;;
17947;SDS011;9099;47.958;11.366;2023-10-08T12:03:52;5.22;;;3.00;;
17947;SDS011;9099;47.958;11.366;2023-10-08T12:06:24;7.05;;;3.08;;
17947;SDS011;9099;47.958;11.366;2023-10-08T12:08:54;9.77;;;3.38;;
17947;SDS011;9099;47.958;11.366;2023-10-08T12:11:24;8.23;;;3.00;;
17947;SDS011;9099;47.958;11.366;2023-10-08T12:13:56;9.75;;;3.05;;
17947;SDS011;9099;47.958;11.366;2023-10-08T12:16:25;8.73;;;2.80;;
17947;SDS011;9099;47.958;11.366;2023-10-08T12:18:55;8.25;;;2.85;;
17947;SDS011;9099;47.958;11.366;2023-10-08T12:21:24;7.68;;;2.83;;
17947;SDS011;9099;47.958;11.366;2023-10-08T12:23:51;7.38;;;3.15;;
17947;SDS011;9099;47.958;11.366;2023-10-08T12:26:20;6.78;;;3.17;;
17947;SDS011;9099;47.958;11.366;2023-10-08T12:28:47;9.02;;;2.95;;
17947;SDS011;9099;47.958;11.366;2023-10-08T12:31:14;8.80;;;2.95;;
17947;SDS011;9099;47.958;11.366;2023-10-08T12:33:43;6.63;;;2.55;;
17947;SDS011;9099;47.958;11.366;2023-10-08T12:36:10;10.60;;;3.22;;
17947;SDS011;9099;47.958;11.366;2023-10-08T12:38:38;10.05;;;2.95;;
17947;SDS011;9099;47.958;11.366;2023-10-08T12:41:06;7.60;;;2.88;;
17947;SDS011;9099;47.958;11.366;2023-10-08T12:43:45;9.95;;;3.35;;
17947;SDS011;9099;47.958;11.366;2023-10-08T12:46:17;6.93;;;2.80;;
17947;SDS011;9099;47.958;11.366;2023-10-08T12:48:50;9.18;;;2.97;;
17947;SDS011;9099;47.958;11.366;2023-10-08T12:51:19;9.07;;;2.97;;
17947;SDS011;9099;47.958;11.366;2023-10-08T12:53:49;6.78;;;3.25;;
17947;SDS011;9099;47.958;11.366;2023-10-08T12:56:23;7.97;;;2.70;;
17947;SDS011;9099;47.958;11.366;2023-10-08T12:58:56;8.02;;;3.03;;
17947;SDS011;9099;47.958;11.366;2023-10-08T13:01:24;8.27;;;3.38;;
17947;SDS011;9099;47.958;11.366;2023-10-08T13:03:56;13.50;;;3.38;;
17947;SDS011;9099;47.958;11.366;2023-10-08T13:06:26;8.50;;;3.15;;
17947;SDS011;9099;47.958;11.366;2023-10-08T13:08:54;9.50;;;3.10;;
17947;SDS011;9099;47.958;11.366;2023-10-08T13:11:22;6.63;;;3.17;;
17947;SDS011;9099;47.958;11.366;2023-10-08T13:13:50;8.73;;;3.00;;
17947;SDS011;9099;47.958;11.366;2023-10-08T13:16:17;8.88;;;3.30;;
17947;SDS011;9099;47.958;11.366;2023-10-08T13:18:46;10.30;;;3.20;;
17947;SDS011;9099;47.958;11.366;2023-10-08T13:21:14;10.98;;;3.22;;
17947;SDS011;9099;47.958;11.366;2023-10-08T13:23:44;8.95;;;2.85;;
17947;SDS011;9099;47.958;11.366;2023-10-08T13:26:11;12.25;;;3.22;;
17947;SDS011;9099;47.958;11.366;2023-10-08T13:28:42;10.50;;;3.33;;
17947;SDS011;9099;47.958;11.366;2023-10-08T13:31:09;7.22;;;2.85;;
17947;SDS011;9099;47.958;11.366;2023-10-08T13:33:37;10.00;;;3.30;;
17947;SDS011;9099;47.958;11.366;2023-10-08T13:36:05;11.52;;;2.78;;
17947;SDS011;9099;47.958;11.366;2023-10-08T13:38:35;11.90;;;3.30;;
17947;SDS011;9099;47.958;11.366;2023-10-08T13:41:03;8.32;;;3.13;;
17947;SDS011;9099;47.958;11.366;2023-10-08T13:43:31;8.45;;;2.85;;
17947;SDS011;9099;47.958;11.366;2023-10-08T13:46:02;6.70;;;2.83;;
17947;SDS011;9099;47.958;11.366;2023-10-08T13:48:31;9.07;;;3.30;;
17947;SDS011;9099;47.958;11.366;2023-10-08T13:50:59;9.25;;;3.30;;
17947;SDS011;9099;47.958;11.366;2023-10-08T13:53:28;12.63;;;3.38;;
17947;SDS011;9099;47.958;11.366;2023-10-08T13:55:58;6.15;;;2.90;;
17947;SDS011;9099;47.958;11.366;2023-10-08T13:58:27;9.60;;;3.20;;
17947;SDS011;9099;47.958;11.366;2023-10-08T14:00:55;6.65;;;3.17;;
17947;SDS011;9099;47.958;11.366;2023-10-08T14:03:24;7.90;;;3.10;;
17947;SDS011;9099;47.958;11.366;2023-10-08T14:05:51;8.23;;;3.03;;
17947;SDS011;9099;47.958;11.366;2023-10-08T14:08:19;6.15;;;3.05;;
17947;SDS011;9099;47.958;11.366;2023-10-08T14:10:47;11.52;;;3.20;;
17947;SDS011;9099;47.958;11.366;2023-10-08T14:13:16;13.63;;;3.13;;
17947;SDS011;9099;47.958;11.366;2023-10-08T14:15:45;10.50;;;3.17;;
17947;SDS011;9099;47.958;11.366;2023-10-08T14:18:14;8.00;;;3.47;;
17947;SDS011;9099;47.958;11.366;2023-10-08T14:20:43;6.72;;;2.90;;
17947;SDS011;9099;47.958;11.366;2023-10-08T14:23:18;5.47;;;2.85;;
17947;SDS011;9099;47.958;11.366;2023-10-08T14:25:47;8.60;;;3.15;;
17947;SDS011;9099;47.958;11.366;2023-10-08T14:28:18;7.50;;;3.20;;
17947;SDS011;9099;47.958;11.366;2023-10-08T14:31:05;6.07;;;2.85;;
17947;SDS011;9099;47.958;11.366;2023-10-08T14:33:32;6.38;;;2.90;;
17947;SDS011;9099;47.958;11.366;2023-10-08T14:36:06;8.38;;;3.03;;
17947;SDS011;9099;47.958;11.366;2023-10-08T14:38:51;9.90;;;3.60;;
17947;SDS011;9099;47.958;11.366;2023-10-08T14:41:35;8.25;;;2.58;;
17947;SDS011;9099;47.958;11.366;2023-10-08T14:44:21;7.20;;;2.60;;
17947;SDS011;9099;47.958;11.366;2023-10-08T14:46:48;7.25;;;3.15;;
17947;SDS011;9099;47.958;11.366;2023-10-08T14:49:15;10.00;;;4.07;;
17947;SDS011;9099;47.958;11.366;2023-10-08T14:51:42;8.57;;;2.85;;
17947;SDS011;9099;47.958;11.366;2023-10-08T14:54:14;6.75;;;2.75;;
17947;SDS011;9099;47.958;11.366;2023-10-08T14:56:40;7.05;;;2.75;;
17947;SDS011;9099;47.958;11.366;2023-10-08T14:59:07;7.40;;;2.70;;
17947;SDS011;9099;47.958;11.366;2023-10-08T15:01:36;7.13;;;2.80;;
17947;SDS011;9099;47.958;11.366;2023-10-08T15:04:03;8.43;;;3.15;;
17947;SDS011;9099;47.958;11.366;2023-10-08T15:06:30;6.95;;;3.08;;
17947;SDS011;9099;47.958;11.366;2023-10-08T15:08:58;6.60;;;3.15;;
17947;SDS011;9099;47.958;11.366;2023-10-08T15:11:26;5.93;;;2.95;;